Altisurface de La Taillade

FR-0290 · Cantal, Alvernia-Rodano-Alpi, Francia

Storia di METAR FR-0290 · Altisurface de La Taillade

Di seguito sono riportati i METAR degli ultimi giorni. Seleziona un anno per sfogliare i METAR più vecchi, dall'anno 2007 in poi.

26 novembre 2022

Tempo Codice Tempo metereologico Temp. Vista Base nuvolosa Vento METAR/SPECI
22:30
V
2 °C 10 km+ - 110° 110° 4 kt METAR LFLW 262130Z AUTO 11004KT CAVOK 02/M01 Q1027
22:00
V
2 °C 8 km - 100° 100° 6 kt METAR LFLW 262100Z AUTO 10006KT 8000 NSC 02/M01 Q1026
21:30
V
2 °C 8 km - 100° 100° 5 kt METAR LFLW 262030Z AUTO 10005KT 8000 NSC 02/M01 Q1027
21:00
V
3 °C 9 km - 090° 090° 7 kt METAR LFLW 262000Z AUTO 09007KT 070V150 9000 NSC 03/01 Q1027
20:30
V
2 °C 10 km+ - 100° 100° 5 kt METAR LFLW 261930Z AUTO 10005KT CAVOK 02/01 Q1027
20:00
V
3 °C 10 km+ - 110° 110° 4 kt METAR LFLW 261900Z AUTO 11004KT CAVOK 03/02 Q1027
19:30
V
4 °C 10 km+ - 140° 140° 3 kt METAR LFLW 261830Z AUTO 14003KT CAVOK 04/03 Q1027
19:00
V
4 °C 10 km+ - 100° 100° 3 kt METAR LFLW 261800Z AUTO 10003KT CAVOK 04/03 Q1027
18:30
V
5 °C 10 km+ - 120° 120° 5 kt METAR LFLW 261730Z AUTO 12005KT CAVOK 05/04 Q1027
18:00
V
5 °C 10 km+ - 120° 120° 3 kt METAR LFLW 261700Z AUTO 12003KT CAVOK 05/05 Q1027 NOSIG
17:30
V
6 °C 10 km+ - 120° 120° 4 kt METAR LFLW 261630Z AUTO 12004KT CAVOK 06/05 Q1027 NOSIG
17:00
V
6 °C 10 km+ - 130° 130° 4 kt METAR LFLW 261600Z AUTO 13004KT CAVOK 06/05 Q1027 NOSIG
16:30
V
7 °C 10 km+ - 080° 080° 2 kt METAR LFLW 261530Z AUTO 08002KT CAVOK 07/05 Q1027 NOSIG
16:00
V
8 °C 10 km+ - Var Var 2 kt METAR LFLW 261500Z AUTO VRB02KT CAVOK 08/05 Q1027 NOSIG
15:30
V
9 °C 10 km+ - 300° 300° 5 kt METAR LFLW 261430Z AUTO 30005KT 250V340 CAVOK 09/05 Q1028 NOSIG
15:00
V
9 °C 10 km+ - 310° 310° 4 kt METAR LFLW 261400Z AUTO 31004KT 290V360 CAVOK 09/05 Q1028 NOSIG
14:30
V
9 °C 10 km+ - Var Var 2 kt METAR LFLW 261330Z AUTO VRB02KT CAVOK 09/04 Q1028 NOSIG
14:00
V
9 °C 10 km+ - Var 000° 0 kt METAR LFLW 261300Z AUTO 00000KT CAVOK 09/05 Q1028 NOSIG
13:30
V
8 °C 10 km+ - 090° 090° 3 kt METAR LFLW 261230Z AUTO 09003KT 070V130 CAVOK 08/04 Q1028 NOSIG
13:00
V
8 °C 10 km+ - Var Var 2 kt METAR LFLW 261200Z AUTO VRB02KT CAVOK 08/03 Q1029 NOSIG
12:30
V
7 °C 10 km+ - Var Var 2 kt METAR LFLW 261130Z AUTO VRB02KT CAVOK 07/05 Q1029 NOSIG
12:00
V
6 °C 10 km+ - Var 000° 0 kt METAR LFLW 261100Z AUTO 00000KT CAVOK 06/04 Q1030 NOSIG
11:30
V
5 °C 10 km+ - Var Var 2 kt METAR LFLW 261030Z AUTO VRB02KT CAVOK 05/04 Q1030 NOSIG
11:00
V
3 °C 10 km+ - 090° 090° 4 kt METAR LFLW 261000Z AUTO 09004KT CAVOK 03/03 Q1030 NOSIG
10:30
V
3 °C 10 km+ - Var Var 3 kt METAR LFLW 260930Z AUTO VRB03KT CAVOK 03/03 Q1030 NOSIG
10:00
M
2 °C 5 km - Var Var 2 kt METAR LFLW 260900Z AUTO VRB02KT 5000 BR FEW001 SCT170 02/02 Q1030 NOSIG
09:30
L
1 °C 600 m - 130° 130° 2 kt METAR LFLW 260830Z AUTO 13002KT 1200 0600 R15/1700U BCFG VV/// 01/01 Q1030 BECMG CAVOK
09:00
L
0 °C 400 m - 090° 090° 3 kt METAR LFLW 260800Z AUTO 09003KT 070V130 1000 0400 R15/0550D BCFG VV/// 00/00 Q1030 BECMG CAVOK
08:30
L
0 °C 350 m - Var Var 2 kt METAR LFLW 260730Z AUTO VRB02KT 0350 R15/0550N FG VV/// 00/00 Q1030 BECMG CAVOK
08:00
L
0 °C 400 m - 280° 280° 2 kt METAR LFLW 260700Z AUTO 28002KT 0400 R15/0450N FG VV/// 00/00 Q1030 NOSIG
07:30
L
0 °C 450 m - Var Var 2 kt METAR LFLW 260630Z AUTO VRB02KT 0450 R15/0550N FG VV/// 00/00 Q1029
07:00
L
0 °C 400 m - 090° 090° 3 kt METAR LFLW 260600Z AUTO 09003KT 0400 R15/0500D FG VV/// 00/00 Q1029
06:30
L
1 °C 350 m - 090° 090° 4 kt METAR LFLW 260530Z AUTO 09004KT 060V120 0350 R15/0400N FG VV/// 01/01 Q1029
06:00
L
1 °C 300 m - 110° 110° 3 kt METAR LFLW 260500Z AUTO 11003KT 0300 R15/0375N FG VV/// 01/01 Q1029
05:30
L
1 °C 300 m - Var Var 2 kt METAR LFLW 260430Z AUTO VRB02KT 0300 R15/0325N FG VV/// 01/01 Q1029
05:00
L
1 °C 250 m - Var 000° 0 kt METAR LFLW 260400Z AUTO 00000KT 0250 R15/0300N FG VV/// 01/01 Q1029
04:30
L
2 °C 300 m - 100° 100° 3 kt METAR LFLW 260330Z AUTO 10003KT 070V150 0350 0300 R15/0375N FG VV/// 02/02 Q1028
04:00
L
2 °C 400 m - 080° 080° 6 kt METAR LFLW 260300Z AUTO 08006KT 0400 R15/0450N FG VV/// 02/02 Q1028
03:30
L
2 °C 450 m - 080° 080° 4 kt METAR LFLW 260230Z AUTO 08004KT 0450 R15/0450D FG VV/// 02/02 Q1029
03:00
L
1 °C 500 m - 330° 330° 2 kt METAR LFLW 260200Z AUTO 33002KT 0600 0500 R15/0400D FG VV/// 01/01 Q1029
02:30
L
1 °C 600 m - Var 000° 0 kt METAR LFLW 260130Z AUTO 00000KT 0750 0600 R15/1000U FG VV/// 01/01 Q1029
02:00
L
3 °C 600 m - 300° 300° 5 kt METAR LFLW 260100Z AUTO 30005KT 0700 0600 R15/0800U FG VV/// 03/03 Q1029
01:30
L
3 °C 450 m - 310° 310° 4 kt METAR LFLW 260030Z AUTO 31004KT 0450 R15/0500N FG VV/// 03/03 Q1029
01:00
L
3 °C 600 m - 270° 270° 3 kt METAR LFLW 260000Z AUTO 27003KT 1000 0600 R15/1700D BCFG FEW014 03/03 Q1029
00:30
L
3 °C 450 m - 250° 250° 4 kt METAR LFLW 252330Z AUTO 25004KT 0500 0450 R15/0600N FG VV/// 03/03 Q1029
00:00
L
4 °C 450 m - 250° 250° 3 kt METAR LFLW 252300Z AUTO 25003KT 0500 0450 R15/0550U FG VV/// 04/04 Q1029

25 novembre 2022

Tempo Codice Tempo metereologico Temp. Vista Base nuvolosa Vento METAR/SPECI
23:30
L
4 °C 400 m - 150° 150° 1 kt METAR LFLW 252230Z AUTO 15001KT 0550 0400 R15/0700N FG FEW035 04/03 Q1028
23:00
L
5 °C 10 km+ 200 ft Var Var 2 kt METAR LFLW 252200Z AUTO VRB02KT 9999 BKN002 OVC035 05/05 Q1028
22:30
M
5 °C 8 km 2.100 ft 270° 270° 2 kt METAR LFLW 252130Z AUTO 27002KT 8000 SCT002 BKN021 BKN027 05/05 Q1029
22:00
L
5 °C 4 km - Var Var 3 kt METAR LFLW 252100Z AUTO VRB03KT 4000 BR VV/// 05/05 Q1028
21:30
L
5 °C 1,2 km - Var Var 3 kt METAR LFLW 252030Z AUTO VRB03KT 1400 1200 R15/1500U BR VV/// 05/05 Q1028
21:00
M
5 °C 10 km+ 1.800 ft 310° 310° 4 kt METAR LFLW 252000Z AUTO 31004KT 280V340 9999 SCT003 BKN018 05/05 Q1027
20:30
V
5 °C 10 km+ - 310° 310° 5 kt METAR LFLW 251930Z AUTO 31005KT 9999 FEW005 05/04 Q1027
20:00
V
5 °C 10 km+ - 310° 310° 4 kt METAR LFLW 251900Z AUTO 31004KT CAVOK 05/05 Q1026
19:30
M
5 °C 10 km+ 1.700 ft 320° 320° 5 kt METAR LFLW 251830Z AUTO 32005KT 300V360 9999 SCT005 BKN017 05/05 Q1025
19:00
I
6 °C 10 km+ 600 ft 310° 310° 5 kt METAR LFLW 251800Z AUTO 31005KT 280V360 9999 OVC006 06/05 Q1025
18:30
I
6 °C 10 km+ 700 ft 340° 340° 4 kt METAR LFLW 251730Z AUTO 34004KT 300V010 9999 BKN007 OVC011 06/05 Q1025
18:00
I
6 °C 10 km+ 500 ft 320° 320° 3 kt METAR LFLW 251700Z AUTO 32003KT 260V010 9999 BKN005 OVC010 06/06 Q1025 TEMPO BKN008 SCT020TCU BECMG 3000 BR
17:30
I
6 °C 10 km+ 500 ft 300° 300° 5 kt METAR LFLW 251630Z AUTO 30005KT 250V330 9999 BKN005 OVC062 06/06 Q1024 TEMPO BKN008 SCT020TCU BECMG 3000 BR
17:00
V
7 °C 10 km+ 4.800 ft 290° 290° 5 kt METAR LFLW 251600Z AUTO 29005KT 260V320 9999 FEW033 BKN048 OVC058 07/06 Q1024 TEMPO 4000 SHRA BKN008 SCT020TCU
16:30
V
7 °C 10 km+ 3.400 ft 310° 310° 4 kt METAR LFLW 251530Z AUTO 31004KT 260V350 9999 -RADZ FEW010/// SCT023/// BKN034/// ///TCU 07/05 Q1023 TEMPO 4000 SHRA BKN008 SCT020TCU
16:00
M
7 °C 10 km+ 1.900 ft 310° 310° 4 kt METAR LFLW 251500Z AUTO 31004KT 270V340 9999 FEW013/// BKN019/// BKN029/// ///CB 07/06 Q1023 TEMPO 4000 SHRA BKN008 SCT020TCU
15:30
V
7 °C 10 km+ 4.500 ft 300° 300° 5 kt METAR LFLW 251430Z AUTO 30005KT 260V330 9999 SCT038/// BKN045/// BKN056/// ///CB 07/06 Q1023 TEMPO 4000 SHRA BKN008 SCT020TCU
15:00
V
7 °C 10 km+ 4.300 ft 280° 280° 6 kt METAR LFLW 251400Z AUTO 28006KT 250V310 9999 -RA FEW010/// SCT033/// BKN043/// ///CB 07/06 Q1022 TEMPO 4000 SHRA BKN008 SCT015TCU
14:30
I
8 °C 4,5 km 900 ft 280° 280° 7 kt METAR LFLW 251330Z AUTO 28007KT 230V330 9999 4500 -RA BKN009/// BKN017/// BKN028/// ///CB 08/06 Q1022 TEMPO 4000 SHRA
14:00
M
8 °C 10 km+ 1.000 ft 270° 270° 6 kt METAR LFLW 251300Z AUTO 27006KT 240V320 9999 BKN010/// BKN015/// BKN027/// ///CB 08/06 Q1022 TEMPO 4000 SHRA
13:30
M
9 °C 10 km+ 1.300 ft 270° 270° 5 kt METAR LFLW 251230Z AUTO 27005KT 230V300 9999 BKN013/// BKN021/// BKN040/// ///TCU 09/07 Q1022 TEMPO 4000 SHRA BKN008 SCT015TCU
13:00
M
9 °C 10 km+ 1.000 ft 260° 260° 5 kt METAR LFLW 251200Z AUTO 26005KT 230V290 9999 BKN010 BKN014 BKN094 09/07 Q1022 TEMPO 4000 SHRA BKN008 SCT015TCU
12:30
V
9 °C 10 km+ 8.600 ft Var Var 3 kt METAR LFLW 251130Z AUTO VRB03KT 9999 SCT007 SCT039 BKN086 09/07 Q1021 TEMPO 4000 SHRA BKN008 SCT015TCU
12:00
L
8 °C 10 km+ 400 ft Var Var 2 kt METAR LFLW 251100Z AUTO VRB02KT 9999 BKN004/// BKN062/// OVC084/// ///CB 08/07 Q1021 TEMPO 4000 SHRA BKN008 SCT015TCU
11:30
V
8 °C 10 km+ 3.300 ft 310° 310° 3 kt METAR LFLW 251030Z AUTO 31003KT 280V340 9999 -RA SCT006/// BKN033/// BKN044/// ///CB 08/07 Q1021 TEMPO 4000 SHRA BKN008 SCT015TCU
11:00
V
7 °C 10 km+ 4.500 ft 290° 290° 3 kt METAR LFLW 251000Z AUTO 29003KT 260V320 9999 -RA FEW010/// BKN045/// OVC054/// ///CB 07/07 Q1021 TEMPO 3000 RA BKN004 SCT015TCU
10:30
L
8 °C 5 km 300 ft 290° 290° 4 kt METAR LFLW 250930Z AUTO 29004KT 240V340 5000 RA BR BKN003/// BKN009/// OVC013/// ///CB 08/07 Q1021 NOSIG
10:00
I
7 °C 4,6 km 800 ft Var Var 2 kt METAR LFLW 250900Z AUTO VRB02KT 4600 RA BR BKN008/// BKN018/// BKN033/// ///CB 07/07 Q1020 BECMG 9999 NSW OVC025
09:30
I
7 °C 4,3 km 500 ft Var 000° 0 kt METAR LFLW 250830Z AUTO 00000KT 4300 RA BR BKN005/// OVC009/// ///CB 07/07 Q1020 BECMG 30010KT 9999 NSW OVC025
09:00
I
7 °C 2,8 km 700 ft 070° 070° 2 kt METAR LFLW 250800Z AUTO 07002KT 2800 RA BR FEW002/// OVC007/// ///CB 07/07 Q1019 BECMG 9999 NSW OVC025
08:30
I
7 °C 4,6 km 800 ft Var Var 3 kt METAR LFLW 250730Z AUTO VRB03KT 4600 -RA BR OVC008/// ///CB 07/07 Q1018 BECMG 9999 NSW OVC025
08:00
I
7 °C 4,4 km 600 ft 040° 040° 5 kt METAR LFLW 250700Z AUTO 04005KT 4400 RA BR OVC006/// ///TCU 07/07 Q1018 TEMPO NSW BKN006
07:30
I
8 °C 4,1 km 700 ft Var Var 2 kt METAR LFLW 250630Z AUTO VRB02KT 4100 -RA BR OVC007/// ///TCU 08/07 Q1018 TEMPO BKN006
07:00
I
8 °C 10 km+ 800 ft Var Var 3 kt METAR LFLW 250600Z AUTO VRB03KT 9999 OVC008/// ///TCU 08/07 Q1018 TEMPO 4000 -RA BKN006
06:30
I
8 °C 8 km 900 ft Var Var 3 kt METAR LFLW 250530Z AUTO VRB03KT 8000 BKN009/// BKN019/// OVC026/// ///TCU 08/06 Q1017 TEMPO 4000 -RA BKN006
06:00
V
8 °C 10 km+ 3.700 ft Var Var 3 kt METAR LFLW 250500Z AUTO VRB03KT 9999 SCT012/// SCT026/// BKN037/// ///CB 08/06 Q1017
05:30
M
7 °C 10 km+ 2.500 ft 120° 120° 5 kt METAR LFLW 250430Z AUTO 12005KT 9999 SCT013/// BKN025/// BKN038/// ///CB 07/06 Q1017
05:00
M
8 °C 10 km+ 2.400 ft Var Var 3 kt METAR LFLW 250400Z AUTO VRB03KT 9999 OVC024/// ///TCU 08/06 Q1017
04:30
M
8 °C 10 km+ 2.300 ft 120° 120° 4 kt METAR LFLW 250330Z AUTO 12004KT 080V160 9999 OVC023 08/06 Q1017
04:00
M
8 °C 10 km+ 2.400 ft 110° 110° 3 kt METAR LFLW 250300Z AUTO 11003KT 070V150 9999 BKN024 BKN034 BKN044 08/06 Q1017
03:30
M
8 °C 10 km+ 2.200 ft 100° 100° 4 kt METAR LFLW 250230Z AUTO 10004KT 060V150 9999 OVC022 08/06 Q1017
03:00
M
8 °C 10 km+ 2.200 ft 100° 100° 4 kt METAR LFLW 250200Z AUTO 10004KT 9999 OVC022/// ///TCU 08/06 Q1017
02:30
M
8 °C 10 km+ 2.400 ft 080° 080° 4 kt METAR LFLW 250130Z AUTO 08004KT 050V110 9999 OVC024 08/06 Q1017
02:00
M
7 °C 10 km+ 2.400 ft Var Var 3 kt METAR LFLW 250100Z AUTO VRB03KT 9999 OVC024 07/06 Q1017
01:30
M
8 °C 10 km+ 2.600 ft 080° 080° 6 kt METAR LFLW 250030Z AUTO 08006KT 9999 OVC026 08/06 Q1017
01:00
M
8 °C 10 km+ 2.600 ft 080° 080° 5 kt METAR LFLW 250000Z AUTO 08005KT 9999 OVC026 08/06 Q1017
00:30
M
8 °C 10 km+ 2.800 ft 090° 090° 4 kt METAR LFLW 242330Z AUTO 09004KT 9999 OVC028 08/06 Q1017
00:00
V
7 °C 10 km+ 3.000 ft Var Var 3 kt METAR LFLW 242300Z AUTO VRB03KT 9999 OVC030 07/06 Q1017

24 novembre 2022

Tempo Codice Tempo metereologico Temp. Vista Base nuvolosa Vento METAR/SPECI
23:30
M
8 °C 10 km+ 2.900 ft Var Var 3 kt METAR LFLW 242230Z AUTO VRB03KT 9999 OVC029 08/06 Q1016
23:00
V
8 °C 10 km+ 3.100 ft 080° 080° 3 kt METAR LFLW 242200Z AUTO 08003KT 9999 OVC031 08/06 Q1016
22:30
V
7 °C 10 km+ 3.100 ft 100° 100° 2 kt METAR LFLW 242130Z AUTO 10002KT 9999 OVC031 07/06 Q1016
22:00
V
8 °C 10 km+ 3.400 ft 110° 110° 3 kt METAR LFLW 242100Z AUTO 11003KT 9999 BKN034 BKN048 BKN054 08/06 Q1016
21:30
V
8 °C 9 km 3.600 ft Var Var 2 kt METAR LFLW 242030Z AUTO VRB02KT 9000 OVC036 08/05 Q1016
21:00
V
8 °C 10 km+ 4.400 ft Var Var 1 kt METAR LFLW 242000Z AUTO VRB01KT 9999 OVC044/// ///TCU 08/05 Q1016
20:30
V
9 °C 10 km+ 5.000 ft Var Var 3 kt METAR LFLW 241930Z AUTO VRB03KT 9999 OVC050 09/05 Q1015
20:00
V
9 °C 10 km+ 13.000 ft 180° 180° 5 kt METAR LFLW 241900Z AUTO 18005KT 140V220 9999 SCT054 BKN130 09/05 Q1015
19:30
V
9 °C 10 km+ - 170° 170° 10 kt METAR LFLW 241830Z AUTO 17010KT 140V210 CAVOK 09/05 Q1014
19:00
V
8 °C 10 km+ - 130° 130° 4 kt METAR LFLW 241800Z AUTO 13004KT 100V170 CAVOK 08/06 Q1015
18:30
V
8 °C 10 km+ - 090° 090° 4 kt METAR LFLW 241730Z AUTO 09004KT CAVOK 08/06 Q1015
18:00
V
8 °C 10 km+ - 100° 100° 4 kt METAR LFLW 241700Z AUTO 10004KT 070V130 CAVOK 08/06 Q1015 TEMPO BKN004
17:30
V
8 °C 10 km+ - 090° 090° 5 kt METAR LFLW 241630Z AUTO 09005KT 060V120 CAVOK 08/06 Q1015 TEMPO BKN004
17:00
V
8 °C 10 km+ - 090° 090° 4 kt METAR LFLW 241600Z AUTO 09004KT CAVOK 08/07 Q1015 NOSIG
16:30
V
9 °C 10 km+ - 120° 120° 3 kt METAR LFLW 241530Z AUTO 12003KT 080V150 CAVOK 09/07 Q1015 NOSIG
16:00
V
9 °C 10 km+ - 150° 150° 4 kt METAR LFLW 241500Z AUTO 15004KT CAVOK 09/07 Q1015 NOSIG
15:30
V
10 °C 10 km+ - Var Var 3 kt METAR LFLW 241430Z AUTO VRB03KT CAVOK 10/06 Q1016 NOSIG
15:00
V
10 °C 10 km+ - Var Var 3 kt METAR LFLW 241400Z AUTO VRB03KT CAVOK 10/06 Q1016 NOSIG
14:30
V
10 °C 10 km+ - 120° 120° 6 kt METAR LFLW 241330Z AUTO 12006KT 100V160 CAVOK 10/06 Q1015 NOSIG
14:00
V
10 °C 10 km+ - 110° 110° 8 kt METAR LFLW 241300Z AUTO 11008KT 070V130 CAVOK 10/06 Q1015 NOSIG
13:30
V
10 °C 10 km+ - 140° 140° 5 kt METAR LFLW 241230Z AUTO 14005KT 110V170 9999 FEW014 10/06 Q1016 NOSIG
13:00
V
10 °C 10 km+ - 130° 130° 8 kt METAR LFLW 241200Z AUTO 13008KT 9999 FEW015 SCT190 10/07 Q1016 NOSIG
12:30
V
9 °C 10 km+ 19.000 ft 120° 120° 7 kt METAR LFLW 241130Z AUTO 12007KT 080V150 9999 SCT013 BKN190 09/06 Q1016 NOSIG
12:00
M
9 °C 10 km+ 1.300 ft 140° 140° 7 kt METAR LFLW 241100Z AUTO 14007KT 100V180 9999 BKN013 09/07 Q1017 BECMG NSC
11:30
M
9 °C 10 km+ 1.000 ft 130° 130° 7 kt METAR LFLW 241030Z AUTO 13007KT 100V160 9999 BKN010 09/07 Q1017 BECMG NSC
11:00
M
9 °C 10 km+ 1.000 ft 140° 140° 4 kt METAR LFLW 241000Z AUTO 14004KT 110V200 9999 OVC010 09/07 Q1018 BECMG NSC

Noi e le terze parti seguiamo il tuo comportamento su internet con i cookie. Se continui, riteniamo che tu sia d'accordo con la nostra Politica sui cookie.